sensor_id;sensor_type;location;lat;lon;timestamp;temperature;humidity
19755;DHT22;10036;47.812;9.274;2023-01-24T00:00:55;2.10;99.90
19755;DHT22;10036;47.812;9.274;2023-01-24T00:03:23;2.10;99.90
19755;DHT22;10036;47.812;9.274;2023-01-24T00:05:50;2.20;99.90
19755;DHT22;10036;47.812;9.274;2023-01-24T00:08:19;2.20;99.90
19755;DHT22;10036;47.812;9.274;2023-01-24T00:10:48;2.20;99.90
19755;DHT22;10036;47.812;9.274;2023-01-24T00:13:16;2.20;99.90
19755;DHT22;10036;47.812;9.274;2023-01-24T00:15:43;2.20;99.90
19755;DHT22;10036;47.812;9.274;2023-01-24T00:18:10;2.20;99.90
19755;DHT22;10036;47.812;9.274;2023-01-24T00:20:38;2.20;99.90
19755;DHT22;10036;47.812;9.274;2023-01-24T00:23:05;2.10;99.90
19755;DHT22;10036;47.812;9.274;2023-01-24T00:25:31;2.10;99.90
19755;DHT22;10036;47.812;9.274;2023-01-24T00:27:58;2.20;99.90
19755;DHT22;10036;47.812;9.274;2023-01-24T00:30:25;2.20;99.90
19755;DHT22;10036;47.812;9.274;2023-01-24T00:32:52;2.20;99.90
19755;DHT22;10036;47.812;9.274;2023-01-24T00:35:19;2.20;99.90
19755;DHT22;10036;47.812;9.274;2023-01-24T00:37:47;2.20;99.90
19755;DHT22;10036;47.812;9.274;2023-01-24T00:40:14;2.20;99.90
19755;DHT22;10036;47.812;9.274;2023-01-24T00:42:41;2.30;99.90
19755;DHT22;10036;47.812;9.274;2023-01-24T00:45:08;2.30;99.90
19755;DHT22;10036;47.812;9.274;2023-01-24T00:47:35;2.20;99.90
19755;DHT22;10036;47.812;9.274;2023-01-24T00:50:02;2.10;99.90
19755;DHT22;10036;47.812;9.274;2023-01-24T00:52:29;2.20;99.90
19755;DHT22;10036;47.812;9.274;2023-01-24T00:54:57;2.20;99.90
19755;DHT22;10036;47.812;9.274;2023-01-24T00:57:24;2.20;99.90
19755;DHT22;10036;47.812;9.274;2023-01-24T00:59:51;2.10;99.90
19755;DHT22;10036;47.812;9.274;2023-01-24T01:02:18;2.20;99.90
19755;DHT22;10036;47.812;9.274;2023-01-24T01:04:45;2.20;99.90
19755;DHT22;10036;47.812;9.274;2023-01-24T01:07:12;2.20;99.90
19755;DHT22;10036;47.812;9.274;2023-01-24T01:09:39;2.20;99.90
19755;DHT22;10036;47.812;9.274;2023-01-24T01:12:07;2.20;99.90
19755;DHT22;10036;47.812;9.274;2023-01-24T01:14:34;2.10;99.90
19755;DHT22;10036;47.812;9.274;2023-01-24T01:17:00;2.10;99.90
19755;DHT22;10036;47.812;9.274;2023-01-24T01:19:27;2.10;99.90
19755;DHT22;10036;47.812;9.274;2023-01-24T01:21:54;2.20;99.90
19755;DHT22;10036;47.812;9.274;2023-01-24T01:24:21;2.20;99.90
19755;DHT22;10036;47.812;9.274;2023-01-24T01:26:48;2.30;99.90
19755;DHT22;10036;47.812;9.274;2023-01-24T01:29:16;2.30;99.90
19755;DHT22;10036;47.812;9.274;2023-01-24T01:31:43;2.30;99.90
19755;DHT22;10036;47.812;9.274;2023-01-24T01:34:10;2.20;99.90
19755;DHT22;10036;47.812;9.274;2023-01-24T01:36:37;2.20;99.90
19755;DHT22;10036;47.812;9.274;2023-01-24T01:39:04;2.10;99.90
19755;DHT22;10036;47.812;9.274;2023-01-24T01:41:31;2.10;99.90
19755;DHT22;10036;47.812;9.274;2023-01-24T01:44:21;2.00;99.90
19755;DHT22;10036;47.812;9.274;2023-01-24T01:47:14;2.10;99.90
19755;DHT22;10036;47.812;9.274;2023-01-24T01:49:46;2.10;99.90
19755;DHT22;10036;47.812;9.274;2023-01-24T01:52:13;2.10;99.90
19755;DHT22;10036;47.812;9.274;2023-01-24T01:54:41;2.10;99.90
19755;DHT22;10036;47.812;9.274;2023-01-24T01:57:14;2.10;99.90
19755;DHT22;10036;47.812;9.274;2023-01-24T01:59:46;2.00;99.90
19755;DHT22;10036;47.812;9.274;2023-01-24T02:02:14;2.00;99.90
19755;DHT22;10036;47.812;9.274;2023-01-24T02:04:44;2.10;99.90
19755;DHT22;10036;47.812;9.274;2023-01-24T02:07:17;2.20;99.90
19755;DHT22;10036;47.812;9.274;2023-01-24T02:09:48;2.20;99.90
19755;DHT22;10036;47.812;9.274;2023-01-24T02:12:19;2.10;99.90
19755;DHT22;10036;47.812;9.274;2023-01-24T02:14:51;2.20;99.90
19755;DHT22;10036;47.812;9.274;2023-01-24T02:17:36;2.10;99.90
19755;DHT22;10036;47.812;9.274;2023-01-24T02:20:11;2.10;99.90
19755;DHT22;10036;47.812;9.274;2023-01-24T02:22:48;2.00;99.90
19755;DHT22;10036;47.812;9.274;2023-01-24T02:25:22;2.00;99.90
19755;DHT22;10036;47.812;9.274;2023-01-24T02:27:55;1.90;99.90
19755;DHT22;10036;47.812;9.274;2023-01-24T02:30:23;1.90;99.90
19755;DHT22;10036;47.812;9.274;2023-01-24T02:32:50;2.00;99.90
19755;DHT22;10036;47.812;9.274;2023-01-24T02:35:25;2.00;99.90
19755;DHT22;10036;47.812;9.274;2023-01-24T02:37:52;2.00;99.90
19755;DHT22;10036;47.812;9.274;2023-01-24T02:40:20;2.00;99.90
19755;DHT22;10036;47.812;9.274;2023-01-24T02:42:47;2.00;99.90
19755;DHT22;10036;47.812;9.274;2023-01-24T02:45:20;2.00;99.90
19755;DHT22;10036;47.812;9.274;2023-01-24T02:47:50;2.00;99.90
19755;DHT22;10036;47.812;9.274;2023-01-24T02:50:17;2.00;99.90
19755;DHT22;10036;47.812;9.274;2023-01-24T02:52:45;2.00;99.90
19755;DHT22;10036;47.812;9.274;2023-01-24T02:55:29;1.90;99.90
19755;DHT22;10036;47.812;9.274;2023-01-24T02:57:56;2.00;99.90
19755;DHT22;10036;47.812;9.274;2023-01-24T03:00:33;2.10;99.90
19755;DHT22;10036;47.812;9.274;2023-01-24T03:03:00;2.10;99.90
19755;DHT22;10036;47.812;9.274;2023-01-24T03:05:29;2.10;99.90
19755;DHT22;10036;47.812;9.274;2023-01-24T03:08:06;2.10;99.90
19755;DHT22;10036;47.812;9.274;2023-01-24T03:10:34;2.10;99.90
19755;DHT22;10036;47.812;9.274;2023-01-24T03:13:01;2.10;99.90
19755;DHT22;10036;47.812;9.274;2023-01-24T03:15:47;2.10;99.90
19755;DHT22;10036;47.812;9.274;2023-01-24T03:18:31;2.20;99.90
19755;DHT22;10036;47.812;9.274;2023-01-24T03:21:15;2.10;99.90
19755;DHT22;10036;47.812;9.274;2023-01-24T03:24:00;2.00;99.90
19755;DHT22;10036;47.812;9.274;2023-01-24T03:26:44;2.10;99.90
19755;DHT22;10036;47.812;9.274;2023-01-24T03:29:28;2.10;99.90
19755;DHT22;10036;47.812;9.274;2023-01-24T03:32:14;2.10;99.90
19755;DHT22;10036;47.812;9.274;2023-01-24T03:34:58;2.20;99.90
19755;DHT22;10036;47.812;9.274;2023-01-24T03:37:25;2.10;99.90
19755;DHT22;10036;47.812;9.274;2023-01-24T03:40:18;2.10;99.90
19755;DHT22;10036;47.812;9.274;2023-01-24T03:42:45;2.00;99.90
19755;DHT22;10036;47.812;9.274;2023-01-24T03:45:15;2.00;99.90
19755;DHT22;10036;47.812;9.274;2023-01-24T03:47:47;2.10;99.90
19755;DHT22;10036;47.812;9.274;2023-01-24T03:50:21;2.10;99.90
19755;DHT22;10036;47.812;9.274;2023-01-24T03:53:06;2.20;99.90
19755;DHT22;10036;47.812;9.274;2023-01-24T03:55:34;2.20;99.90
19755;DHT22;10036;47.812;9.274;2023-01-24T03:58:01;2.10;99.90
19755;DHT22;10036;47.812;9.274;2023-01-24T04:00:28;2.00;99.90
19755;DHT22;10036;47.812;9.274;2023-01-24T04:02:56;1.90;99.90
19755;DHT22;10036;47.812;9.274;2023-01-24T04:05:23;2.00;99.90
19755;DHT22;10036;47.812;9.274;2023-01-24T04:07:50;2.10;99.90
19755;DHT22;10036;47.812;9.274;2023-01-24T04:10:17;2.10;99.90
19755;DHT22;10036;47.812;9.274;2023-01-24T04:12:44;2.10;99.90
19755;DHT22;10036;47.812;9.274;2023-01-24T04:15:15;2.20;99.90
19755;DHT22;10036;47.812;9.274;2023-01-24T04:17:42;2.10;99.90
19755;DHT22;10036;47.812;9.274;2023-01-24T04:20:11;2.00;99.90
19755;DHT22;10036;47.812;9.274;2023-01-24T04:22:39;2.10;99.90
19755;DHT22;10036;47.812;9.274;2023-01-24T04:25:06;2.10;99.90
19755;DHT22;10036;47.812;9.274;2023-01-24T04:27:33;2.10;99.90
19755;DHT22;10036;47.812;9.274;2023-01-24T04:30:01;2.20;99.90
19755;DHT22;10036;47.812;9.274;2023-01-24T04:32:28;2.00;99.90
19755;DHT22;10036;47.812;9.274;2023-01-24T04:34:55;2.10;99.90
19755;DHT22;10036;47.812;9.274;2023-01-24T04:37:23;2.10;99.90
19755;DHT22;10036;47.812;9.274;2023-01-24T04:39:50;2.10;99.90
19755;DHT22;10036;47.812;9.274;2023-01-24T04:42:17;2.00;99.90
19755;DHT22;10036;47.812;9.274;2023-01-24T04:44:44;2.00;99.90
19755;DHT22;10036;47.812;9.274;2023-01-24T04:47:11;1.90;99.90
19755;DHT22;10036;47.812;9.274;2023-01-24T04:49:38;2.00;99.90
19755;DHT22;10036;47.812;9.274;2023-01-24T04:52:06;2.10;99.90
19755;DHT22;10036;47.812;9.274;2023-01-24T04:54:34;2.10;99.90
19755;DHT22;10036;47.812;9.274;2023-01-24T04:57:01;2.10;99.90
19755;DHT22;10036;47.812;9.274;2023-01-24T04:59:28;2.20;99.90
19755;DHT22;10036;47.812;9.274;2023-01-24T05:01:54;2.10;99.90
19755;DHT22;10036;47.812;9.274;2023-01-24T05:04:21;2.20;99.90
19755;DHT22;10036;47.812;9.274;2023-01-24T05:06:48;2.20;99.90
19755;DHT22;10036;47.812;9.274;2023-01-24T05:09:15;2.20;99.90
19755;DHT22;10036;47.812;9.274;2023-01-24T05:11:43;2.20;99.90
19755;DHT22;10036;47.812;9.274;2023-01-24T05:14:10;2.10;99.90
19755;DHT22;10036;47.812;9.274;2023-01-24T05:16:37;2.10;99.90
19755;DHT22;10036;47.812;9.274;2023-01-24T05:19:04;2.10;99.90
19755;DHT22;10036;47.812;9.274;2023-01-24T05:21:31;2.10;99.90
19755;DHT22;10036;47.812;9.274;2023-01-24T05:23:58;2.10;99.90
19755;DHT22;10036;47.812;9.274;2023-01-24T05:26:26;2.20;99.90
19755;DHT22;10036;47.812;9.274;2023-01-24T05:28:55;2.20;99.90
19755;DHT22;10036;47.812;9.274;2023-01-24T05:31:21;2.20;99.90
19755;DHT22;10036;47.812;9.274;2023-01-24T05:33:48;2.20;99.90
19755;DHT22;10036;47.812;9.274;2023-01-24T05:36:17;2.20;99.90
19755;DHT22;10036;47.812;9.274;2023-01-24T05:38:45;2.10;99.90
19755;DHT22;10036;47.812;9.274;2023-01-24T05:41:13;2.10;99.90
19755;DHT22;10036;47.812;9.274;2023-01-24T05:43:42;2.10;99.90
19755;DHT22;10036;47.812;9.274;2023-01-24T05:46:12;2.10;99.90
19755;DHT22;10036;47.812;9.274;2023-01-24T05:48:39;2.20;99.90
19755;DHT22;10036;47.812;9.274;2023-01-24T05:51:07;2.10;99.90
19755;DHT22;10036;47.812;9.274;2023-01-24T05:53:35;2.20;99.90
19755;DHT22;10036;47.812;9.274;2023-01-24T05:56:04;2.20;99.90
19755;DHT22;10036;47.812;9.274;2023-01-24T05:58:34;2.20;99.90
19755;DHT22;10036;47.812;9.274;2023-01-24T06:01:05;2.20;99.90
19755;DHT22;10036;47.812;9.274;2023-01-24T06:03:33;2.10;99.90
19755;DHT22;10036;47.812;9.274;2023-01-24T06:06:00;2.10;99.90
19755;DHT22;10036;47.812;9.274;2023-01-24T06:08:27;2.20;99.90
19755;DHT22;10036;47.812;9.274;2023-01-24T06:10:53;2.20;99.90
19755;DHT22;10036;47.812;9.274;2023-01-24T06:13:20;2.10;99.90
19755;DHT22;10036;47.812;9.274;2023-01-24T06:15:48;2.10;99.90
19755;DHT22;10036;47.812;9.274;2023-01-24T06:18:17;2.10;99.90
19755;DHT22;10036;47.812;9.274;2023-01-24T06:20:46;2.10;99.90
19755;DHT22;10036;47.812;9.274;2023-01-24T06:23:23;2.20;99.90
19755;DHT22;10036;47.812;9.274;2023-01-24T06:25:51;2.20;99.90
19755;DHT22;10036;47.812;9.274;2023-01-24T06:28:18;2.20;99.90
19755;DHT22;10036;47.812;9.274;2023-01-24T06:30:48;2.30;99.90
19755;DHT22;10036;47.812;9.274;2023-01-24T06:33:25;2.20;99.90
19755;DHT22;10036;47.812;9.274;2023-01-24T06:36:14;2.20;99.90
19755;DHT22;10036;47.812;9.274;2023-01-24T06:38:45;2.20;99.90
19755;DHT22;10036;47.812;9.274;2023-01-24T06:41:15;2.30;99.90
19755;DHT22;10036;47.812;9.274;2023-01-24T06:43:43;2.20;99.90
19755;DHT22;10036;47.812;9.274;2023-01-24T06:46:11;2.10;99.90
19755;DHT22;10036;47.812;9.274;2023-01-24T06:48:38;2.20;99.90
19755;DHT22;10036;47.812;9.274;2023-01-24T06:51:10;2.20;99.90
19755;DHT22;10036;47.812;9.274;2023-01-24T06:53:38;2.20;99.90
19755;DHT22;10036;47.812;9.274;2023-01-24T06:56:05;2.20;99.90
19755;DHT22;10036;47.812;9.274;2023-01-24T06:58:32;2.30;99.90
19755;DHT22;10036;47.812;9.274;2023-01-24T07:00:59;2.30;99.90
19755;DHT22;10036;47.812;9.274;2023-01-24T07:03:26;2.20;99.90
19755;DHT22;10036;47.812;9.274;2023-01-24T07:05:53;2.20;99.90
19755;DHT22;10036;47.812;9.274;2023-01-24T07:08:21;2.10;99.90
19755;DHT22;10036;47.812;9.274;2023-01-24T07:10:48;2.10;99.90
19755;DHT22;10036;47.812;9.274;2023-01-24T07:13:15;2.30;99.90
19755;DHT22;10036;47.812;9.274;2023-01-24T07:15:42;2.20;99.90
19755;DHT22;10036;47.812;9.274;2023-01-24T07:18:09;2.20;99.90
19755;DHT22;10036;47.812;9.274;2023-01-24T07:20:37;2.20;99.90
19755;DHT22;10036;47.812;9.274;2023-01-24T07:23:05;2.20;99.90
19755;DHT22;10036;47.812;9.274;2023-01-24T07:25:33;2.20;99.90
19755;DHT22;10036;47.812;9.274;2023-01-24T07:28:04;2.30;99.90
19755;DHT22;10036;47.812;9.274;2023-01-24T07:30:31;2.20;99.90
19755;DHT22;10036;47.812;9.274;2023-01-24T07:32:58;2.10;99.90
19755;DHT22;10036;47.812;9.274;2023-01-24T07:35:25;2.10;99.90
19755;DHT22;10036;47.812;9.274;2023-01-24T07:37:52;2.10;99.90
19755;DHT22;10036;47.812;9.274;2023-01-24T07:40:19;2.00;99.90
19755;DHT22;10036;47.812;9.274;2023-01-24T07:42:47;2.10;99.90
19755;DHT22;10036;47.812;9.274;2023-01-24T07:45:14;2.30;99.90
19755;DHT22;10036;47.812;9.274;2023-01-24T07:47:40;2.30;99.90
19755;DHT22;10036;47.812;9.274;2023-01-24T07:50:08;2.30;99.90
19755;DHT22;10036;47.812;9.274;2023-01-24T07:52:35;2.20;99.90
19755;DHT22;10036;47.812;9.274;2023-01-24T07:55:02;2.20;99.90
19755;DHT22;10036;47.812;9.274;2023-01-24T07:57:30;2.20;99.90
19755;DHT22;10036;47.812;9.274;2023-01-24T07:59:58;2.40;99.90
19755;DHT22;10036;47.812;9.274;2023-01-24T08:02:24;2.40;99.90
19755;DHT22;10036;47.812;9.274;2023-01-24T08:04:51;2.30;99.90
19755;DHT22;10036;47.812;9.274;2023-01-24T08:07:18;2.40;99.90
19755;DHT22;10036;47.812;9.274;2023-01-24T08:09:46;2.40;99.90
19755;DHT22;10036;47.812;9.274;2023-01-24T08:12:14;2.40;99.90
19755;DHT22;10036;47.812;9.274;2023-01-24T08:14:41;2.30;99.90
19755;DHT22;10036;47.812;9.274;2023-01-24T08:17:10;2.30;99.90
19755;DHT22;10036;47.812;9.274;2023-01-24T08:19:36;2.40;99.90
19755;DHT22;10036;47.812;9.274;2023-01-24T08:22:05;2.40;99.90
19755;DHT22;10036;47.812;9.274;2023-01-24T08:24:32;2.30;99.90
19755;DHT22;10036;47.812;9.274;2023-01-24T08:27:00;2.40;99.90
19755;DHT22;10036;47.812;9.274;2023-01-24T08:29:27;2.50;99.90
19755;DHT22;10036;47.812;9.274;2023-01-24T08:31:54;2.40;99.90
19755;DHT22;10036;47.812;9.274;2023-01-24T08:34:22;2.60;99.90
19755;DHT22;10036;47.812;9.274;2023-01-24T08:36:49;2.50;99.90
19755;DHT22;10036;47.812;9.274;2023-01-24T08:39:15;2.50;99.90
19755;DHT22;10036;47.812;9.274;2023-01-24T08:41:43;2.50;99.90
19755;DHT22;10036;47.812;9.274;2023-01-24T08:44:11;2.50;99.90
19755;DHT22;10036;47.812;9.274;2023-01-24T08:46:38;2.50;99.90
19755;DHT22;10036;47.812;9.274;2023-01-24T08:49:05;2.40;99.90
19755;DHT22;10036;47.812;9.274;2023-01-24T08:51:33;2.40;99.90
19755;DHT22;10036;47.812;9.274;2023-01-24T08:54:00;2.40;99.90
19755;DHT22;10036;47.812;9.274;2023-01-24T08:56:27;2.50;99.90
19755;DHT22;10036;47.812;9.274;2023-01-24T08:58:54;2.60;99.90
19755;DHT22;10036;47.812;9.274;2023-01-24T09:01:21;2.50;99.90
19755;DHT22;10036;47.812;9.274;2023-01-24T09:03:47;2.60;99.90
19755;DHT22;10036;47.812;9.274;2023-01-24T09:06:15;2.60;99.90
19755;DHT22;10036;47.812;9.274;2023-01-24T09:08:43;2.50;99.90
19755;DHT22;10036;47.812;9.274;2023-01-24T09:11:10;2.60;99.90
19755;DHT22;10036;47.812;9.274;2023-01-24T09:13:37;2.60;99.90
19755;DHT22;10036;47.812;9.274;2023-01-24T09:16:04;2.60;99.90
19755;DHT22;10036;47.812;9.274;2023-01-24T09:18:31;2.50;99.90
19755;DHT22;10036;47.812;9.274;2023-01-24T09:21:02;2.50;99.90
19755;DHT22;10036;47.812;9.274;2023-01-24T09:23:30;2.70;99.90
19755;DHT22;10036;47.812;9.274;2023-01-24T09:25:58;2.70;99.90
19755;DHT22;10036;47.812;9.274;2023-01-24T09:28:25;2.70;99.90
19755;DHT22;10036;47.812;9.274;2023-01-24T09:30:52;2.70;99.90
19755;DHT22;10036;47.812;9.274;2023-01-24T09:33:19;2.70;99.90
19755;DHT22;10036;47.812;9.274;2023-01-24T09:35:52;2.60;99.90
19755;DHT22;10036;47.812;9.274;2023-01-24T09:38:19;2.60;99.90
19755;DHT22;10036;47.812;9.274;2023-01-24T09:40:53;2.80;99.90
19755;DHT22;10036;47.812;9.274;2023-01-24T09:43:39;2.70;99.90
19755;DHT22;10036;47.812;9.274;2023-01-24T09:46:15;2.80;99.90
19755;DHT22;10036;47.812;9.274;2023-01-24T09:48:46;2.80;99.90
19755;DHT22;10036;47.812;9.274;2023-01-24T09:51:18;2.70;99.90
19755;DHT22;10036;47.812;9.274;2023-01-24T09:53:50;2.60;99.90
19755;DHT22;10036;47.812;9.274;2023-01-24T09:56:21;2.70;99.90
19755;DHT22;10036;47.812;9.274;2023-01-24T09:59:01;2.70;99.90
19755;DHT22;10036;47.812;9.274;2023-01-24T10:01:37;2.70;99.90
19755;DHT22;10036;47.812;9.274;2023-01-24T10:04:18;2.80;99.90
19755;DHT22;10036;47.812;9.274;2023-01-24T10:07:07;2.80;99.90
19755;DHT22;10036;47.812;9.274;2023-01-24T10:09:44;2.80;99.90
19755;DHT22;10036;47.812;9.274;2023-01-24T10:15:30;2.80;99.90
19755;DHT22;10036;47.812;9.274;2023-01-24T10:18:27;2.80;99.90
19755;DHT22;10036;47.812;9.274;2023-01-24T10:21:10;2.70;99.90
19755;DHT22;10036;47.812;9.274;2023-01-24T10:23:41;2.80;99.90
19755;DHT22;10036;47.812;9.274;2023-01-24T10:26:16;2.80;99.90
19755;DHT22;10036;47.812;9.274;2023-01-24T10:28:47;2.70;99.90
19755;DHT22;10036;47.812;9.274;2023-01-24T10:31:20;2.80;99.90
19755;DHT22;10036;47.812;9.274;2023-01-24T10:33:49;2.80;99.90
19755;DHT22;10036;47.812;9.274;2023-01-24T10:36:25;2.90;99.90
19755;DHT22;10036;47.812;9.274;2023-01-24T10:38:53;2.90;99.90
19755;DHT22;10036;47.812;9.274;2023-01-24T10:41:22;2.90;99.90
19755;DHT22;10036;47.812;9.274;2023-01-24T10:43:53;2.90;99.90
19755;DHT22;10036;47.812;9.274;2023-01-24T10:49:28;2.90;99.90
19755;DHT22;10036;47.812;9.274;2023-01-24T10:52:13;2.90;99.90
19755;DHT22;10036;47.812;9.274;2023-01-24T10:54:45;2.90;99.90
19755;DHT22;10036;47.812;9.274;2023-01-24T11:00:24;2.90;99.90
19755;DHT22;10036;47.812;9.274;2023-01-24T11:02:56;2.90;99.90
19755;DHT22;10036;47.812;9.274;2023-01-24T11:05:24;2.90;99.90
19755;DHT22;10036;47.812;9.274;2023-01-24T11:07:53;3.00;99.90
19755;DHT22;10036;47.812;9.274;2023-01-24T11:10:24;3.00;99.90
19755;DHT22;10036;47.812;9.274;2023-01-24T11:12:53;3.00;99.90
19755;DHT22;10036;47.812;9.274;2023-01-24T11:15:27;3.00;99.90
19755;DHT22;10036;47.812;9.274;2023-01-24T11:17:58;3.00;99.90
19755;DHT22;10036;47.812;9.274;2023-01-24T11:20:31;3.00;99.90
19755;DHT22;10036;47.812;9.274;2023-01-24T11:23:06;3.10;99.90
19755;DHT22;10036;47.812;9.274;2023-01-24T11:25:51;3.10;99.90
19755;DHT22;10036;47.812;9.274;2023-01-24T11:28:24;3.10;99.90
19755;DHT22;10036;47.812;9.274;2023-01-24T11:30:52;3.20;99.90
19755;DHT22;10036;47.812;9.274;2023-01-24T11:33:38;3.00;99.90
19755;DHT22;10036;47.812;9.274;2023-01-24T11:36:16;2.90;99.90
19755;DHT22;10036;47.812;9.274;2023-01-24T11:38:49;2.90;99.90
19755;DHT22;10036;47.812;9.274;2023-01-24T11:41:22;3.00;99.90
19755;DHT22;10036;47.812;9.274;2023-01-24T11:44:08;3.00;99.90
19755;DHT22;10036;47.812;9.274;2023-01-24T11:46:51;3.10;99.90
19755;DHT22;10036;47.812;9.274;2023-01-24T11:49:43;3.10;99.90
19755;DHT22;10036;47.812;9.274;2023-01-24T11:52:25;3.20;99.90
19755;DHT22;10036;47.812;9.274;2023-01-24T11:55:01;3.10;99.90
19755;DHT22;10036;47.812;9.274;2023-01-24T11:57:37;3.10;99.90
19755;DHT22;10036;47.812;9.274;2023-01-24T12:00:19;3.00;99.90
19755;DHT22;10036;47.812;9.274;2023-01-24T12:05:50;3.00;99.90
19755;DHT22;10036;47.812;9.274;2023-01-24T12:08:32;2.90;99.90
19755;DHT22;10036;47.812;9.274;2023-01-24T12:11:12;2.90;99.90
19755;DHT22;10036;47.812;9.274;2023-01-24T12:13:46;3.10;99.90
19755;DHT22;10036;47.812;9.274;2023-01-24T12:16:22;3.00;99.90
19755;DHT22;10036;47.812;9.274;2023-01-24T12:19:15;2.90;99.90
19755;DHT22;10036;47.812;9.274;2023-01-24T12:21:52;2.90;99.90
19755;DHT22;10036;47.812;9.274;2023-01-24T12:24:24;2.80;99.90
19755;DHT22;10036;47.812;9.274;2023-01-24T12:26:54;3.00;99.90
19755;DHT22;10036;47.812;9.274;2023-01-24T12:29:25;3.00;99.90
19755;DHT22;10036;47.812;9.274;2023-01-24T12:31:56;3.00;99.90
19755;DHT22;10036;47.812;9.274;2023-01-24T12:34:37;3.00;99.90
19755;DHT22;10036;47.812;9.274;2023-01-24T12:37:12;3.00;99.90
19755;DHT22;10036;47.812;9.274;2023-01-24T12:39:45;3.00;99.90
19755;DHT22;10036;47.812;9.274;2023-01-24T12:42:16;2.90;99.90
19755;DHT22;10036;47.812;9.274;2023-01-24T12:44:48;2.90;99.90
19755;DHT22;10036;47.812;9.274;2023-01-24T12:47:24;2.90;99.90
19755;DHT22;10036;47.812;9.274;2023-01-24T12:50:03;2.90;99.90
19755;DHT22;10036;47.812;9.274;2023-01-24T12:52:41;3.00;99.90
19755;DHT22;10036;47.812;9.274;2023-01-24T12:55:13;3.00;99.90
19755;DHT22;10036;47.812;9.274;2023-01-24T12:57:44;3.20;99.90
19755;DHT22;10036;47.812;9.274;2023-01-24T13:00:17;3.10;99.90
19755;DHT22;10036;47.812;9.274;2023-01-24T13:05:45;3.10;99.90
19755;DHT22;10036;47.812;9.274;2023-01-24T13:08:23;3.00;99.90
19755;DHT22;10036;47.812;9.274;2023-01-24T13:11:06;3.10;99.90
19755;DHT22;10036;47.812;9.274;2023-01-24T13:13:45;3.00;99.90
19755;DHT22;10036;47.812;9.274;2023-01-24T13:19:15;3.10;99.90
19755;DHT22;10036;47.812;9.274;2023-01-24T13:21:50;3.10;99.90
19755;DHT22;10036;47.812;9.274;2023-01-24T13:24:40;3.00;99.90
19755;DHT22;10036;47.812;9.274;2023-01-24T13:27:34;3.10;99.90
19755;DHT22;10036;47.812;9.274;2023-01-24T13:30:22;3.10;99.90
19755;DHT22;10036;47.812;9.274;2023-01-24T13:32:51;3.20;99.90
19755;DHT22;10036;47.812;9.274;2023-01-24T13:35:20;3.20;99.90
19755;DHT22;10036;47.812;9.274;2023-01-24T13:37:51;3.20;99.90
19755;DHT22;10036;47.812;9.274;2023-01-24T13:40:25;3.20;99.90
19755;DHT22;10036;47.812;9.274;2023-01-24T13:42:53;3.10;99.90
19755;DHT22;10036;47.812;9.274;2023-01-24T13:48:44;3.10;99.90
19755;DHT22;10036;47.812;9.274;2023-01-24T13:51:32;3.10;99.90
19755;DHT22;10036;47.812;9.274;2023-01-24T13:54:00;3.00;99.90
19755;DHT22;10036;47.812;9.274;2023-01-24T13:56:28;3.10;99.90
19755;DHT22;10036;47.812;9.274;2023-01-24T13:58:55;3.10;99.90
19755;DHT22;10036;47.812;9.274;2023-01-24T14:01:24;3.10;99.90
19755;DHT22;10036;47.812;9.274;2023-01-24T14:03:54;3.10;99.90
19755;DHT22;10036;47.812;9.274;2023-01-24T14:06:21;3.00;99.90
19755;DHT22;10036;47.812;9.274;2023-01-24T14:09:18;2.90;99.90
19755;DHT22;10036;47.812;9.274;2023-01-24T14:11:56;3.00;99.90
19755;DHT22;10036;47.812;9.274;2023-01-24T14:17:46;2.80;99.90
19755;DHT22;10036;47.812;9.274;2023-01-24T14:20:35;2.90;99.90
19755;DHT22;10036;47.812;9.274;2023-01-24T14:23:13;2.90;99.90
19755;DHT22;10036;47.812;9.274;2023-01-24T14:25:52;2.90;99.90
19755;DHT22;10036;47.812;9.274;2023-01-24T14:28:30;3.10;99.90
19755;DHT22;10036;47.812;9.274;2023-01-24T14:31:01;3.00;99.90
19755;DHT22;10036;47.812;9.274;2023-01-24T14:33:33;2.90;99.90
19755;DHT22;10036;47.812;9.274;2023-01-24T14:36:21;3.00;99.90
19755;DHT22;10036;47.812;9.274;2023-01-24T14:39:11;3.00;99.90
19755;DHT22;10036;47.812;9.274;2023-01-24T14:41:39;2.90;99.90
19755;DHT22;10036;47.812;9.274;2023-01-24T14:44:17;3.00;99.90
19755;DHT22;10036;47.812;9.274;2023-01-24T14:46:53;3.10;99.90
19755;DHT22;10036;47.812;9.274;2023-01-24T14:49:29;3.10;99.90
19755;DHT22;10036;47.812;9.274;2023-01-24T14:51:56;3.00;99.90
19755;DHT22;10036;47.812;9.274;2023-01-24T14:54:24;3.00;99.90
19755;DHT22;10036;47.812;9.274;2023-01-24T14:56:51;3.00;99.90
19755;DHT22;10036;47.812;9.274;2023-01-24T14:59:21;2.90;99.90
19755;DHT22;10036;47.812;9.274;2023-01-24T15:01:51;2.90;99.90
19755;DHT22;10036;47.812;9.274;2023-01-24T15:04:21;2.90;99.90
19755;DHT22;10036;47.812;9.274;2023-01-24T15:07:03;3.10;99.90
19755;DHT22;10036;47.812;9.274;2023-01-24T15:09:30;3.00;99.90
19755;DHT22;10036;47.812;9.274;2023-01-24T15:12:14;2.80;99.90
19755;DHT22;10036;47.812;9.274;2023-01-24T15:14:47;2.80;99.90
19755;DHT22;10036;47.812;9.274;2023-01-24T15:17:19;2.70;99.90
19755;DHT22;10036;47.812;9.274;2023-01-24T15:19:49;3.00;99.90
19755;DHT22;10036;47.812;9.274;2023-01-24T15:22:20;3.00;99.90
19755;DHT22;10036;47.812;9.274;2023-01-24T15:24:52;2.90;99.90
19755;DHT22;10036;47.812;9.274;2023-01-24T15:30:16;3.00;99.90
19755;DHT22;10036;47.812;9.274;2023-01-24T15:32:45;2.90;99.90
19755;DHT22;10036;47.812;9.274;2023-01-24T15:35:29;2.80;99.90
19755;DHT22;10036;47.812;9.274;2023-01-24T15:38:19;2.80;99.90
19755;DHT22;10036;47.812;9.274;2023-01-24T15:41:18;2.80;99.90
19755;DHT22;10036;47.812;9.274;2023-01-24T15:43:55;2.80;99.90
19755;DHT22;10036;47.812;9.274;2023-01-24T15:46:29;2.70;99.90
19755;DHT22;10036;47.812;9.274;2023-01-24T15:49:27;2.70;99.90
19755;DHT22;10036;47.812;9.274;2023-01-24T15:52:15;2.70;99.90
19755;DHT22;10036;47.812;9.274;2023-01-24T15:54:44;2.90;99.90
19755;DHT22;10036;47.812;9.274;2023-01-24T15:57:18;2.80;99.90
19755;DHT22;10036;47.812;9.274;2023-01-24T15:59:47;2.80;99.90
19755;DHT22;10036;47.812;9.274;2023-01-24T16:02:16;2.80;99.90
19755;DHT22;10036;47.812;9.274;2023-01-24T16:04:43;2.80;99.90
19755;DHT22;10036;47.812;9.274;2023-01-24T16:07:11;2.80;99.90
19755;DHT22;10036;47.812;9.274;2023-01-24T16:09:38;2.80;99.90
19755;DHT22;10036;47.812;9.274;2023-01-24T16:12:07;2.80;99.90
19755;DHT22;10036;47.812;9.274;2023-01-24T16:14:36;2.80;99.90
19755;DHT22;10036;47.812;9.274;2023-01-24T16:17:05;2.70;99.90
19755;DHT22;10036;47.812;9.274;2023-01-24T16:19:33;2.60;99.90
19755;DHT22;10036;47.812;9.274;2023-01-24T16:22:01;2.60;99.90
19755;DHT22;10036;47.812;9.274;2023-01-24T16:24:28;2.80;99.90
19755;DHT22;10036;47.812;9.274;2023-01-24T16:26:55;2.80;99.90
19755;DHT22;10036;47.812;9.274;2023-01-24T16:32:19;2.80;99.90
19755;DHT22;10036;47.812;9.274;2023-01-24T16:34:51;2.90;99.90
19755;DHT22;10036;47.812;9.274;2023-01-24T16:37:18;2.80;99.90
19755;DHT22;10036;47.812;9.274;2023-01-24T16:39:45;2.70;99.90
19755;DHT22;10036;47.812;9.274;2023-01-24T16:42:14;2.70;99.90